sensor_id;sensor_type;location;lat;lon;timestamp;P1;durP1;ratioP1;P2;durP2;ratioP2
26502;SDS011;14177;51.520;6.764;2022-12-29T00:01:05;3.00;;;1.25;;
26502;SDS011;14177;51.520;6.764;2022-12-29T00:03:39;1.17;;;0.70;;
26502;SDS011;14177;51.520;6.764;2022-12-29T00:06:10;3.50;;;1.30;;
26502;SDS011;14177;51.520;6.764;2022-12-29T00:08:39;2.58;;;0.95;;
26502;SDS011;14177;51.520;6.764;2022-12-29T00:11:14;1.25;;;1.10;;
26502;SDS011;14177;51.520;6.764;2022-12-29T00:13:44;1.50;;;1.13;;
26502;SDS011;14177;51.520;6.764;2022-12-29T00:16:31;1.55;;;1.00;;
26502;SDS011;14177;51.520;6.764;2022-12-29T00:19:00;1.95;;;0.80;;
26502;SDS011;14177;51.520;6.764;2022-12-29T00:21:28;2.75;;;1.20;;
26502;SDS011;14177;51.520;6.764;2022-12-29T00:24:33;1.42;;;0.90;;
26502;SDS011;14177;51.520;6.764;2022-12-29T00:27:19;2.53;;;1.52;;
26502;SDS011;14177;51.520;6.764;2022-12-29T00:30:15;2.92;;;1.25;;
26502;SDS011;14177;51.520;6.764;2022-12-29T00:33:12;1.58;;;0.75;;
26502;SDS011;14177;51.520;6.764;2022-12-29T00:36:07;1.50;;;0.93;;
26502;SDS011;14177;51.520;6.764;2022-12-29T00:38:47;1.88;;;0.90;;
26502;SDS011;14177;51.520;6.764;2022-12-29T00:41:38;3.72;;;0.77;;
26502;SDS011;14177;51.520;6.764;2022-12-29T00:46:50;5.88;;;2.10;;
26502;SDS011;14177;51.520;6.764;2022-12-29T00:49:18;2.28;;;1.33;;
26502;SDS011;14177;51.520;6.764;2022-12-29T00:51:58;1.73;;;1.08;;
26502;SDS011;14177;51.520;6.764;2022-12-29T00:54:33;2.15;;;0.60;;
26502;SDS011;14177;51.520;6.764;2022-12-29T00:57:04;1.02;;;0.65;;
26502;SDS011;14177;51.520;6.764;2022-12-29T00:59:37;2.20;;;0.50;;
26502;SDS011;14177;51.520;6.764;2022-12-29T01:02:05;0.70;;;0.50;;
26502;SDS011;14177;51.520;6.764;2022-12-29T01:04:33;0.90;;;0.50;;
26502;SDS011;14177;51.520;6.764;2022-12-29T01:07:01;1.85;;;0.93;;
26502;SDS011;14177;51.520;6.764;2022-12-29T01:09:28;0.85;;;0.63;;
26502;SDS011;14177;51.520;6.764;2022-12-29T01:12:14;1.40;;;0.70;;
26502;SDS011;14177;51.520;6.764;2022-12-29T01:14:43;2.83;;;1.33;;
26502;SDS011;14177;51.520;6.764;2022-12-29T01:17:10;2.92;;;1.30;;
26502;SDS011;14177;51.520;6.764;2022-12-29T01:19:39;2.88;;;1.25;;
26502;SDS011;14177;51.520;6.764;2022-12-29T01:22:06;2.47;;;1.02;;
26502;SDS011;14177;51.520;6.764;2022-12-29T01:24:33;3.90;;;1.70;;
26502;SDS011;14177;51.520;6.764;2022-12-29T01:27:00;2.25;;;1.20;;
26502;SDS011;14177;51.520;6.764;2022-12-29T01:29:28;2.80;;;1.45;;
26502;SDS011;14177;51.520;6.764;2022-12-29T01:31:56;6.10;;;2.05;;
26502;SDS011;14177;51.520;6.764;2022-12-29T01:34:24;7.90;;;2.95;;
26502;SDS011;14177;51.520;6.764;2022-12-29T01:36:51;10.85;;;3.40;;
26502;SDS011;14177;51.520;6.764;2022-12-29T01:39:18;6.55;;;3.00;;
26502;SDS011;14177;51.520;6.764;2022-12-29T01:41:45;5.70;;;2.33;;
26502;SDS011;14177;51.520;6.764;2022-12-29T01:50:09;1.55;;;1.00;;
26502;SDS011;14177;51.520;6.764;2022-12-29T01:52:47;2.17;;;0.70;;
26502;SDS011;14177;51.520;6.764;2022-12-29T01:55:28;2.13;;;1.30;;
26502;SDS011;14177;51.520;6.764;2022-12-29T01:58:01;2.58;;;0.70;;
26502;SDS011;14177;51.520;6.764;2022-12-29T02:00:31;4.00;;;1.17;;
26502;SDS011;14177;51.520;6.764;2022-12-29T02:03:00;2.85;;;1.38;;
26502;SDS011;14177;51.520;6.764;2022-12-29T02:05:32;4.43;;;2.03;;
26502;SDS011;14177;51.520;6.764;2022-12-29T02:08:12;1.98;;;1.08;;
26502;SDS011;14177;51.520;6.764;2022-12-29T02:10:40;2.38;;;1.20;;
26502;SDS011;14177;51.520;6.764;2022-12-29T02:13:10;5.10;;;2.13;;
26502;SDS011;14177;51.520;6.764;2022-12-29T02:31:40;5.15;;;2.05;;
26502;SDS011;14177;51.520;6.764;2022-12-29T02:38:03;10.90;;;2.58;;
26502;SDS011;14177;51.520;6.764;2022-12-29T02:40:53;7.70;;;2.25;;
26502;SDS011;14177;51.520;6.764;2022-12-29T02:46:49;5.80;;;1.70;;
26502;SDS011;14177;51.520;6.764;2022-12-29T02:49:39;8.48;;;3.63;;
26502;SDS011;14177;51.520;6.764;2022-12-29T02:52:23;9.05;;;3.50;;
26502;SDS011;14177;51.520;6.764;2022-12-29T02:54:59;6.57;;;2.55;;
26502;SDS011;14177;51.520;6.764;2022-12-29T02:57:32;9.68;;;2.58;;
26502;SDS011;14177;51.520;6.764;2022-12-29T03:00:09;5.65;;;1.88;;
26502;SDS011;14177;51.520;6.764;2022-12-29T03:02:57;4.10;;;1.77;;
26502;SDS011;14177;51.520;6.764;2022-12-29T03:11:19;6.00;;;1.77;;
26502;SDS011;14177;51.520;6.764;2022-12-29T03:14:30;2.95;;;1.10;;
26502;SDS011;14177;51.520;6.764;2022-12-29T03:20:24;6.03;;;2.58;;
26502;SDS011;14177;51.520;6.764;2022-12-29T03:23:05;7.05;;;3.03;;
26502;SDS011;14177;51.520;6.764;2022-12-29T03:25:35;10.23;;;5.00;;
26502;SDS011;14177;51.520;6.764;2022-12-29T03:28:12;15.38;;;6.03;;
26502;SDS011;14177;51.520;6.764;2022-12-29T03:30:47;5.03;;;2.20;;
26502;SDS011;14177;51.520;6.764;2022-12-29T03:33:21;4.18;;;1.20;;
26502;SDS011;14177;51.520;6.764;2022-12-29T03:35:58;4.80;;;1.75;;
26502;SDS011;14177;51.520;6.764;2022-12-29T03:38:39;3.53;;;1.45;;
26502;SDS011;14177;51.520;6.764;2022-12-29T03:41:11;2.42;;;1.23;;
26502;SDS011;14177;51.520;6.764;2022-12-29T03:43:43;4.43;;;2.00;;
26502;SDS011;14177;51.520;6.764;2022-12-29T03:46:12;6.90;;;2.25;;
26502;SDS011;14177;51.520;6.764;2022-12-29T03:48:41;4.85;;;1.60;;
26502;SDS011;14177;51.520;6.764;2022-12-29T03:51:09;1.75;;;0.70;;
26502;SDS011;14177;51.520;6.764;2022-12-29T03:53:36;2.35;;;1.05;;
26502;SDS011;14177;51.520;6.764;2022-12-29T03:56:07;2.25;;;1.17;;
26502;SDS011;14177;51.520;6.764;2022-12-29T03:58:48;3.10;;;0.90;;
26502;SDS011;14177;51.520;6.764;2022-12-29T04:01:22;1.40;;;0.88;;
26502;SDS011;14177;51.520;6.764;2022-12-29T04:03:51;1.42;;;1.00;;
26502;SDS011;14177;51.520;6.764;2022-12-29T04:06:23;2.63;;;0.98;;
26502;SDS011;14177;51.520;6.764;2022-12-29T04:09:01;3.30;;;1.40;;
26502;SDS011;14177;51.520;6.764;2022-12-29T04:11:32;6.25;;;1.92;;
26502;SDS011;14177;51.520;6.764;2022-12-29T04:14:02;3.67;;;2.05;;
26502;SDS011;14177;51.520;6.764;2022-12-29T04:16:31;14.48;;;4.78;;
26502;SDS011;14177;51.520;6.764;2022-12-29T04:19:00;7.70;;;3.42;;
26502;SDS011;14177;51.520;6.764;2022-12-29T04:21:28;8.63;;;2.90;;
26502;SDS011;14177;51.520;6.764;2022-12-29T04:23:57;6.13;;;3.10;;
26502;SDS011;14177;51.520;6.764;2022-12-29T04:26:24;6.53;;;2.53;;
26502;SDS011;14177;51.520;6.764;2022-12-29T04:29:07;3.10;;;1.67;;
26502;SDS011;14177;51.520;6.764;2022-12-29T04:32:02;3.80;;;1.67;;
26502;SDS011;14177;51.520;6.764;2022-12-29T04:34:33;2.55;;;1.05;;
26502;SDS011;14177;51.520;6.764;2022-12-29T04:37:03;3.08;;;1.42;;
26502;SDS011;14177;51.520;6.764;2022-12-29T04:39:30;3.65;;;1.13;;
26502;SDS011;14177;51.520;6.764;2022-12-29T04:41:59;2.33;;;1.00;;
26502;SDS011;14177;51.520;6.764;2022-12-29T04:44:26;3.53;;;1.40;;
26502;SDS011;14177;51.520;6.764;2022-12-29T04:46:56;1.25;;;0.68;;
26502;SDS011;14177;51.520;6.764;2022-12-29T04:49:48;1.67;;;0.90;;
26502;SDS011;14177;51.520;6.764;2022-12-29T04:52:41;1.50;;;0.60;;
26502;SDS011;14177;51.520;6.764;2022-12-29T04:55:11;0.43;;;0.40;;
26502;SDS011;14177;51.520;6.764;2022-12-29T04:57:44;1.75;;;0.40;;
26502;SDS011;14177;51.520;6.764;2022-12-29T05:00:18;2.40;;;0.50;;
26502;SDS011;14177;51.520;6.764;2022-12-29T05:03:15;2.67;;;0.40;;
26502;SDS011;14177;51.520;6.764;2022-12-29T05:05:44;3.95;;;0.52;;
26502;SDS011;14177;51.520;6.764;2022-12-29T05:08:11;2.17;;;0.43;;
26502;SDS011;14177;51.520;6.764;2022-12-29T05:10:40;0.95;;;0.50;;
26502;SDS011;14177;51.520;6.764;2022-12-29T05:13:12;1.00;;;0.60;;
26502;SDS011;14177;51.520;6.764;2022-12-29T05:15:41;0.95;;;0.40;;
26502;SDS011;14177;51.520;6.764;2022-12-29T05:18:16;3.25;;;0.32;;
26502;SDS011;14177;51.520;6.764;2022-12-29T05:20:59;0.68;;;0.40;;
26502;SDS011;14177;51.520;6.764;2022-12-29T05:23:27;0.40;;;0.30;;
26502;SDS011;14177;51.520;6.764;2022-12-29T05:25:59;0.50;;;0.40;;
26502;SDS011;14177;51.520;6.764;2022-12-29T05:28:44;2.53;;;0.57;;
26502;SDS011;14177;51.520;6.764;2022-12-29T05:31:16;1.17;;;0.60;;
26502;SDS011;14177;51.520;6.764;2022-12-29T05:33:43;2.20;;;0.70;;
26502;SDS011;14177;51.520;6.764;2022-12-29T05:36:11;8.57;;;2.10;;
26502;SDS011;14177;51.520;6.764;2022-12-29T05:38:46;6.70;;;1.90;;
26502;SDS011;14177;51.520;6.764;2022-12-29T05:41:13;3.25;;;1.30;;
26502;SDS011;14177;51.520;6.764;2022-12-29T05:43:58;6.28;;;1.13;;
26502;SDS011;14177;51.520;6.764;2022-12-29T05:46:28;3.83;;;1.02;;
26502;SDS011;14177;51.520;6.764;2022-12-29T05:49:16;2.63;;;0.90;;
26502;SDS011;14177;51.520;6.764;2022-12-29T05:52:02;4.47;;;1.23;;
26502;SDS011;14177;51.520;6.764;2022-12-29T05:54:31;4.40;;;1.35;;
26502;SDS011;14177;51.520;6.764;2022-12-29T05:57:00;5.30;;;1.17;;
26502;SDS011;14177;51.520;6.764;2022-12-29T05:59:28;7.05;;;1.23;;
26502;SDS011;14177;51.520;6.764;2022-12-29T06:01:56;3.33;;;1.20;;
26502;SDS011;14177;51.520;6.764;2022-12-29T06:04:23;2.65;;;0.70;;
26502;SDS011;14177;51.520;6.764;2022-12-29T06:06:51;6.38;;;1.15;;
26502;SDS011;14177;51.520;6.764;2022-12-29T06:09:24;3.33;;;1.10;;
26502;SDS011;14177;51.520;6.764;2022-12-29T06:11:53;3.95;;;1.17;;
26502;SDS011;14177;51.520;6.764;2022-12-29T06:14:20;3.35;;;0.90;;
26502;SDS011;14177;51.520;6.764;2022-12-29T06:16:47;3.33;;;1.13;;
26502;SDS011;14177;51.520;6.764;2022-12-29T06:19:15;2.90;;;0.85;;
26502;SDS011;14177;51.520;6.764;2022-12-29T06:21:44;3.92;;;0.80;;
26502;SDS011;14177;51.520;6.764;2022-12-29T06:24:33;1.25;;;0.70;;
26502;SDS011;14177;51.520;6.764;2022-12-29T06:27:06;2.58;;;0.90;;
26502;SDS011;14177;51.520;6.764;2022-12-29T06:29:44;4.40;;;1.15;;
26502;SDS011;14177;51.520;6.764;2022-12-29T06:32:11;2.97;;;0.93;;
26502;SDS011;14177;51.520;6.764;2022-12-29T06:34:45;4.28;;;1.40;;
26502;SDS011;14177;51.520;6.764;2022-12-29T06:37:12;3.72;;;1.20;;
26502;SDS011;14177;51.520;6.764;2022-12-29T06:39:39;2.97;;;0.88;;
26502;SDS011;14177;51.520;6.764;2022-12-29T06:42:10;4.93;;;1.40;;
26502;SDS011;14177;51.520;6.764;2022-12-29T06:44:43;3.85;;;1.00;;
26502;SDS011;14177;51.520;6.764;2022-12-29T06:47:10;3.95;;;1.45;;
26502;SDS011;14177;51.520;6.764;2022-12-29T06:49:40;4.00;;;0.90;;
26502;SDS011;14177;51.520;6.764;2022-12-29T06:52:07;2.85;;;0.82;;
26502;SDS011;14177;51.520;6.764;2022-12-29T06:54:38;4.65;;;0.77;;
26502;SDS011;14177;51.520;6.764;2022-12-29T06:57:05;3.75;;;0.77;;
26502;SDS011;14177;51.520;6.764;2022-12-29T06:59:33;1.70;;;0.80;;
26502;SDS011;14177;51.520;6.764;2022-12-29T07:02:08;4.80;;;1.30;;
26502;SDS011;14177;51.520;6.764;2022-12-29T07:05:23;6.05;;;1.00;;
26502;SDS011;14177;51.520;6.764;2022-12-29T07:07:54;2.28;;;0.80;;
26502;SDS011;14177;51.520;6.764;2022-12-29T07:10:22;2.22;;;0.80;;
26502;SDS011;14177;51.520;6.764;2022-12-29T07:12:53;2.40;;;1.00;;
26502;SDS011;14177;51.520;6.764;2022-12-29T07:15:28;2.17;;;0.93;;
26502;SDS011;14177;51.520;6.764;2022-12-29T07:17:57;6.60;;;1.60;;
26502;SDS011;14177;51.520;6.764;2022-12-29T07:20:29;3.67;;;1.20;;
26502;SDS011;14177;51.520;6.764;2022-12-29T07:22:59;5.07;;;1.55;;
26502;SDS011;14177;51.520;6.764;2022-12-29T07:25:29;9.45;;;2.10;;
26502;SDS011;14177;51.520;6.764;2022-12-29T07:27:57;5.82;;;1.42;;
26502;SDS011;14177;51.520;6.764;2022-12-29T07:30:29;4.40;;;1.30;;
26502;SDS011;14177;51.520;6.764;2022-12-29T07:32:57;8.55;;;1.50;;
26502;SDS011;14177;51.520;6.764;2022-12-29T07:35:53;4.43;;;1.40;;
26502;SDS011;14177;51.520;6.764;2022-12-29T07:38:37;5.88;;;1.80;;
26502;SDS011;14177;51.520;6.764;2022-12-29T07:41:13;6.65;;;2.05;;
26502;SDS011;14177;51.520;6.764;2022-12-29T07:43:40;10.23;;;1.55;;
26502;SDS011;14177;51.520;6.764;2022-12-29T07:46:20;9.43;;;1.65;;
26502;SDS011;14177;51.520;6.764;2022-12-29T07:49:16;6.55;;;1.80;;
26502;SDS011;14177;51.520;6.764;2022-12-29T07:51:51;7.63;;;2.10;;
26502;SDS011;14177;51.520;6.764;2022-12-29T07:54:22;7.53;;;1.85;;
26502;SDS011;14177;51.520;6.764;2022-12-29T07:56:50;12.95;;;2.90;;
26502;SDS011;14177;51.520;6.764;2022-12-29T07:59:21;10.68;;;2.88;;
26502;SDS011;14177;51.520;6.764;2022-12-29T08:01:49;10.65;;;3.28;;
26502;SDS011;14177;51.520;6.764;2022-12-29T08:04:17;15.15;;;3.65;;
26502;SDS011;14177;51.520;6.764;2022-12-29T08:06:44;30.23;;;5.88;;
26502;SDS011;14177;51.520;6.764;2022-12-29T08:09:12;38.47;;;7.45;;
26502;SDS011;14177;51.520;6.764;2022-12-29T08:12:01;31.35;;;5.05;;
26502;SDS011;14177;51.520;6.764;2022-12-29T08:14:55;20.33;;;4.23;;
26502;SDS011;14177;51.520;6.764;2022-12-29T08:20:16;4.38;;;1.42;;
26502;SDS011;14177;51.520;6.764;2022-12-29T08:22:43;4.95;;;1.67;;
26502;SDS011;14177;51.520;6.764;2022-12-29T08:25:16;10.07;;;1.25;;
26502;SDS011;14177;51.520;6.764;2022-12-29T08:27:45;6.22;;;1.20;;
26502;SDS011;14177;51.520;6.764;2022-12-29T08:30:30;11.18;;;1.35;;
26502;SDS011;14177;51.520;6.764;2022-12-29T08:33:00;11.73;;;2.00;;
26502;SDS011;14177;51.520;6.764;2022-12-29T08:35:29;9.20;;;1.30;;
26502;SDS011;14177;51.520;6.764;2022-12-29T08:37:57;7.53;;;1.90;;
26502;SDS011;14177;51.520;6.764;2022-12-29T08:40:24;9.85;;;2.35;;
26502;SDS011;14177;51.520;6.764;2022-12-29T08:42:50;10.15;;;2.78;;
26502;SDS011;14177;51.520;6.764;2022-12-29T08:45:17;9.55;;;2.33;;
26502;SDS011;14177;51.520;6.764;2022-12-29T08:47:45;11.88;;;2.60;;
26502;SDS011;14177;51.520;6.764;2022-12-29T08:50:12;11.55;;;3.00;;
26502;SDS011;14177;51.520;6.764;2022-12-29T08:52:39;10.82;;;1.95;;
26502;SDS011;14177;51.520;6.764;2022-12-29T08:55:07;7.40;;;1.80;;
26502;SDS011;14177;51.520;6.764;2022-12-29T08:57:35;7.50;;;2.03;;
26502;SDS011;14177;51.520;6.764;2022-12-29T09:00:14;11.85;;;2.10;;
26502;SDS011;14177;51.520;6.764;2022-12-29T09:02:42;4.75;;;1.23;;
26502;SDS011;14177;51.520;6.764;2022-12-29T09:05:12;12.02;;;2.97;;
26502;SDS011;14177;51.520;6.764;2022-12-29T09:07:40;7.57;;;2.10;;
26502;SDS011;14177;51.520;6.764;2022-12-29T09:10:07;10.60;;;2.10;;
26502;SDS011;14177;51.520;6.764;2022-12-29T09:12:34;7.03;;;1.70;;
26502;SDS011;14177;51.520;6.764;2022-12-29T09:15:04;8.63;;;2.30;;
26502;SDS011;14177;51.520;6.764;2022-12-29T09:17:33;8.48;;;1.88;;
26502;SDS011;14177;51.520;6.764;2022-12-29T09:20:17;11.10;;;2.13;;
26502;SDS011;14177;51.520;6.764;2022-12-29T09:22:46;7.53;;;2.67;;
26502;SDS011;14177;51.520;6.764;2022-12-29T09:25:18;13.93;;;2.88;;
26502;SDS011;14177;51.520;6.764;2022-12-29T09:27:45;9.63;;;2.72;;
26502;SDS011;14177;51.520;6.764;2022-12-29T09:30:14;9.20;;;2.33;;
26502;SDS011;14177;51.520;6.764;2022-12-29T09:32:42;13.75;;;2.47;;
26502;SDS011;14177;51.520;6.764;2022-12-29T09:35:13;9.57;;;2.13;;
26502;SDS011;14177;51.520;6.764;2022-12-29T09:37:42;10.10;;;1.95;;
26502;SDS011;14177;51.520;6.764;2022-12-29T09:40:17;9.25;;;1.80;;
26502;SDS011;14177;51.520;6.764;2022-12-29T09:43:43;4.82;;;1.23;;
26502;SDS011;14177;51.520;6.764;2022-12-29T09:49:16;10.52;;;1.33;;
26502;SDS011;14177;51.520;6.764;2022-12-29T09:52:13;7.32;;;1.63;;
26502;SDS011;14177;51.520;6.764;2022-12-29T09:57:56;6.03;;;1.60;;
26502;SDS011;14177;51.520;6.764;2022-12-29T10:03:36;10.68;;;1.80;;
26502;SDS011;14177;51.520;6.764;2022-12-29T10:06:24;13.27;;;1.95;;
26502;SDS011;14177;51.520;6.764;2022-12-29T10:17:52;7.68;;;1.33;;
26502;SDS011;14177;51.520;6.764;2022-12-29T10:21:00;11.13;;;2.55;;
26502;SDS011;14177;51.520;6.764;2022-12-29T10:23:52;6.05;;;2.13;;
26502;SDS011;14177;51.520;6.764;2022-12-29T10:26:20;10.75;;;1.80;;
26502;SDS011;14177;51.520;6.764;2022-12-29T10:28:54;8.10;;;2.00;;
26502;SDS011;14177;51.520;6.764;2022-12-29T10:31:35;7.07;;;2.53;;
26502;SDS011;14177;51.520;6.764;2022-12-29T10:37:32;5.90;;;1.83;;
26502;SDS011;14177;51.520;6.764;2022-12-29T10:40:14;13.35;;;3.47;;
26502;SDS011;14177;51.520;6.764;2022-12-29T10:42:56;6.00;;;1.40;;
26502;SDS011;14177;51.520;6.764;2022-12-29T10:45:26;11.00;;;2.90;;
26502;SDS011;14177;51.520;6.764;2022-12-29T10:48:05;8.90;;;1.70;;
26502;SDS011;14177;51.520;6.764;2022-12-29T10:50:45;8.60;;;2.10;;
26502;SDS011;14177;51.520;6.764;2022-12-29T10:53:19;17.75;;;5.70;;
26502;SDS011;14177;51.520;6.764;2022-12-29T10:55:52;9.10;;;2.53;;
26502;SDS011;14177;51.520;6.764;2022-12-29T10:58:26;10.45;;;2.15;;
26502;SDS011;14177;51.520;6.764;2022-12-29T11:00:55;16.30;;;4.45;;
26502;SDS011;14177;51.520;6.764;2022-12-29T11:06:18;17.08;;;2.78;;
26502;SDS011;14177;51.520;6.764;2022-12-29T11:11:25;9.13;;;1.80;;
26502;SDS011;14177;51.520;6.764;2022-12-29T11:14:14;10.50;;;2.58;;
26502;SDS011;14177;51.520;6.764;2022-12-29T11:17:01;11.20;;;2.15;;
26502;SDS011;14177;51.520;6.764;2022-12-29T11:20:37;7.22;;;1.65;;
26502;SDS011;14177;51.520;6.764;2022-12-29T11:24:43;12.13;;;2.13;;
26502;SDS011;14177;51.520;6.764;2022-12-29T11:28:14;12.90;;;2.95;;
26502;SDS011;14177;51.520;6.764;2022-12-29T11:33:44;9.30;;;1.98;;
26502;SDS011;14177;51.520;6.764;2022-12-29T11:46:14;5.53;;;1.58;;
26502;SDS011;14177;51.520;6.764;2022-12-29T11:48:49;8.63;;;2.08;;
26502;SDS011;14177;51.520;6.764;2022-12-29T11:51:22;8.63;;;2.60;;
26502;SDS011;14177;51.520;6.764;2022-12-29T11:53:56;5.90;;;1.60;;
26502;SDS011;14177;51.520;6.764;2022-12-29T11:56:34;5.80;;;1.58;;
26502;SDS011;14177;51.520;6.764;2022-12-29T12:01:57;9.57;;;2.03;;
26502;SDS011;14177;51.520;6.764;2022-12-29T12:04:30;7.90;;;1.67;;
26502;SDS011;14177;51.520;6.764;2022-12-29T12:07:15;7.53;;;1.45;;
26502;SDS011;14177;51.520;6.764;2022-12-29T12:10:00;5.70;;;1.55;;
26502;SDS011;14177;51.520;6.764;2022-12-29T12:12:56;6.22;;;1.90;;
26502;SDS011;14177;51.520;6.764;2022-12-29T12:15:45;6.82;;;1.90;;
26502;SDS011;14177;51.520;6.764;2022-12-29T12:35:48;7.85;;;1.48;;
26502;SDS011;14177;51.520;6.764;2022-12-29T12:47:31;11.43;;;1.52;;
26502;SDS011;14177;51.520;6.764;2022-12-29T12:50:38;4.87;;;1.40;;
26502;SDS011;14177;51.520;6.764;2022-12-29T13:02:37;6.90;;;1.17;;
26502;SDS011;14177;51.520;6.764;2022-12-29T13:05:38;9.18;;;1.27;;
26502;SDS011;14177;51.520;6.764;2022-12-29T13:17:59;8.77;;;1.90;;
26502;SDS011;14177;51.520;6.764;2022-12-29T13:20:39;7.38;;;2.08;;
26502;SDS011;14177;51.520;6.764;2022-12-29T13:35:19;19.70;;;2.75;;
26502;SDS011;14177;51.520;6.764;2022-12-29T13:39:16;18.90;;;3.20;;
26502;SDS011;14177;51.520;6.764;2022-12-29T13:41:53;7.90;;;1.80;;
26502;SDS011;14177;51.520;6.764;2022-12-29T13:44:33;6.97;;;1.58;;
26502;SDS011;14177;51.520;6.764;2022-12-29T13:47:29;9.32;;;2.08;;
26502;SDS011;14177;51.520;6.764;2022-12-29T13:50:54;5.57;;;1.30;;
26502;SDS011;14177;51.520;6.764;2022-12-29T13:53:29;11.45;;;2.42;;
26502;SDS011;14177;51.520;6.764;2022-12-29T13:56:15;10.38;;;1.42;;
26502;SDS011;14177;51.520;6.764;2022-12-29T13:59:20;10.18;;;1.90;;
26502;SDS011;14177;51.520;6.764;2022-12-29T14:02:18;9.23;;;2.10;;
26502;SDS011;14177;51.520;6.764;2022-12-29T14:08:48;21.48;;;3.40;;
26502;SDS011;14177;51.520;6.764;2022-12-29T14:11:38;13.00;;;2.72;;
26502;SDS011;14177;51.520;6.764;2022-12-29T14:14:24;8.52;;;1.98;;
26502;SDS011;14177;51.520;6.764;2022-12-29T14:17:11;8.82;;;2.10;;
26502;SDS011;14177;51.520;6.764;2022-12-29T14:29:45;8.23;;;1.58;;
26502;SDS011;14177;51.520;6.764;2022-12-29T14:31:53;12.57;;;2.90;;
26502;SDS011;14177;51.520;6.764;2022-12-29T14:34:38;13.65;;;3.10;;
26502;SDS011;14177;51.520;6.764;2022-12-29T14:56:08;13.43;;;3.00;;
26502;SDS011;14177;51.520;6.764;2022-12-29T14:59:48;16.77;;;3.20;;
26502;SDS011;14177;51.520;6.764;2022-12-29T15:02:33;16.20;;;3.00;;
26502;SDS011;14177;51.520;6.764;2022-12-29T15:06:05;8.73;;;2.13;;
26502;SDS011;14177;51.520;6.764;2022-12-29T15:08:19;10.82;;;2.88;;
26502;SDS011;14177;51.520;6.764;2022-12-29T15:13:51;10.70;;;2.28;;
26502;SDS011;14177;51.520;6.764;2022-12-29T15:16:25;6.43;;;1.80;;
26502;SDS011;14177;51.520;6.764;2022-12-29T15:18:59;10.32;;;2.60;;
26502;SDS011;14177;51.520;6.764;2022-12-29T15:21:27;15.00;;;2.38;;
26502;SDS011;14177;51.520;6.764;2022-12-29T15:24:00;10.55;;;2.25;;
26502;SDS011;14177;51.520;6.764;2022-12-29T15:26:42;8.45;;;2.50;;
26502;SDS011;14177;51.520;6.764;2022-12-29T15:32:18;12.00;;;2.47;;
26502;SDS011;14177;51.520;6.764;2022-12-29T15:34:51;10.43;;;2.40;;
26502;SDS011;14177;51.520;6.764;2022-12-29T15:37:26;13.57;;;2.90;;
26502;SDS011;14177;51.520;6.764;2022-12-29T15:40:00;9.90;;;2.58;;
26502;SDS011;14177;51.520;6.764;2022-12-29T15:45:37;8.85;;;2.13;;
26502;SDS011;14177;51.520;6.764;2022-12-29T15:48:05;8.20;;;1.83;;
26502;SDS011;14177;51.520;6.764;2022-12-29T15:50:42;8.57;;;2.03;;
26502;SDS011;14177;51.520;6.764;2022-12-29T15:53:11;10.75;;;1.75;;
26502;SDS011;14177;51.520;6.764;2022-12-29T15:55:59;8.07;;;1.80;;
26502;SDS011;14177;51.520;6.764;2022-12-29T15:58:38;5.80;;;1.85;;
26502;SDS011;14177;51.520;6.764;2022-12-29T16:04:04;14.68;;;2.92;;
26502;SDS011;14177;51.520;6.764;2022-12-29T16:06:35;11.95;;;3.92;;
26502;SDS011;14177;51.520;6.764;2022-12-29T16:09:18;13.85;;;3.03;;
26502;SDS011;14177;51.520;6.764;2022-12-29T16:12:06;11.40;;;3.28;;
26502;SDS011;14177;51.520;6.764;2022-12-29T16:14:54;14.40;;;3.05;;
26502;SDS011;14177;51.520;6.764;2022-12-29T16:17:28;9.57;;;2.95;;
26502;SDS011;14177;51.520;6.764;2022-12-29T16:20:03;8.23;;;1.88;;
26502;SDS011;14177;51.520;6.764;2022-12-29T16:23:05;6.97;;;1.63;;
26502;SDS011;14177;51.520;6.764;2022-12-29T16:25:44;7.60;;;1.88;;
26502;SDS011;14177;51.520;6.764;2022-12-29T16:28:19;10.43;;;2.70;;
26502;SDS011;14177;51.520;6.764;2022-12-29T16:30:58;11.68;;;2.25;;
26502;SDS011;14177;51.520;6.764;2022-12-29T16:37:24;7.50;;;1.77;;
26502;SDS011;14177;51.520;6.764;2022-12-29T16:42:46;5.82;;;1.60;;
26502;SDS011;14177;51.520;6.764;2022-12-29T16:56:50;13.38;;;4.82;;
26502;SDS011;14177;51.520;6.764;2022-12-29T17:02:34;4.60;;;1.85;;
26502;SDS011;14177;51.520;6.764;2022-12-29T17:05:29;6.65;;;2.30;;
26502;SDS011;14177;51.520;6.764;2022-12-29T17:08:02;7.07;;;2.03;;
26502;SDS011;14177;51.520;6.764;2022-12-29T17:11:59;3.10;;;1.25;;
26502;SDS011;14177;51.520;6.764;2022-12-29T17:18:17;12.45;;;4.68;;
26502;SDS011;14177;51.520;6.764;2022-12-29T17:20:55;13.15;;;4.90;;
26502;SDS011;14177;51.520;6.764;2022-12-29T17:23:43;13.93;;;4.65;;
26502;SDS011;14177;51.520;6.764;2022-12-29T17:26:10;14.68;;;5.47;;
26502;SDS011;14177;51.520;6.764;2022-12-29T17:28:53;6.78;;;3.33;;
26502;SDS011;14177;51.520;6.764;2022-12-29T17:31:21;16.30;;;5.28;;
26502;SDS011;14177;51.520;6.764;2022-12-29T17:33:52;15.82;;;5.13;;
26502;SDS011;14177;51.520;6.764;2022-12-29T17:36:23;10.60;;;3.55;;
26502;SDS011;14177;51.520;6.764;2022-12-29T17:39:04;3.75;;;1.25;;
26502;SDS011;14177;51.520;6.764;2022-12-29T17:42:06;9.00;;;2.30;;
26502;SDS011;14177;51.520;6.764;2022-12-29T17:44:49;3.10;;;1.33;;
26502;SDS011;14177;51.520;6.764;2022-12-29T17:47:36;6.93;;;1.77;;
26502;SDS011;14177;51.520;6.764;2022-12-29T17:50:26;12.05;;;3.50;;
26502;SDS011;14177;51.520;6.764;2022-12-29T17:52:59;11.27;;;3.15;;
26502;SDS011;14177;51.520;6.764;2022-12-29T17:55:42;8.18;;;2.67;;
26502;SDS011;14177;51.520;6.764;2022-12-29T17:58:21;13.07;;;4.65;;
26502;SDS011;14177;51.520;6.764;2022-12-29T18:00:57;22.30;;;6.53;;
26502;SDS011;14177;51.520;6.764;2022-12-29T18:03:31;19.73;;;8.05;;
26502;SDS011;14177;51.520;6.764;2022-12-29T18:06:34;14.98;;;5.28;;
26502;SDS011;14177;51.520;6.764;2022-12-29T18:09:01;11.20;;;3.47;;
26502;SDS011;14177;51.520;6.764;2022-12-29T18:11:30;13.48;;;3.65;;
26502;SDS011;14177;51.520;6.764;2022-12-29T18:16:54;9.88;;;3.08;;
26502;SDS011;14177;51.520;6.764;2022-12-29T18:19:21;9.68;;;3.55;;
26502;SDS011;14177;51.520;6.764;2022-12-29T18:21:56;9.30;;;3.28;;
26502;SDS011;14177;51.520;6.764;2022-12-29T18:25:48;17.17;;;7.50;;
26502;SDS011;14177;51.520;6.764;2022-12-29T18:28:41;20.60;;;8.88;;
26502;SDS011;14177;51.520;6.764;2022-12-29T18:31:34;15.25;;;5.00;;
26502;SDS011;14177;51.520;6.764;2022-12-29T18:34:05;11.80;;;3.60;;
26502;SDS011;14177;51.520;6.764;2022-12-29T18:36:39;12.60;;;3.58;;
26502;SDS011;14177;51.520;6.764;2022-12-29T18:39:07;6.55;;;2.30;;
26502;SDS011;14177;51.520;6.764;2022-12-29T18:41:42;9.30;;;3.85;;
26502;SDS011;14177;51.520;6.764;2022-12-29T18:44:29;15.77;;;3.70;;
26502;SDS011;14177;51.520;6.764;2022-12-29T18:46:57;13.55;;;4.03;;
26502;SDS011;14177;51.520;6.764;2022-12-29T18:49:24;12.80;;;3.25;;
26502;SDS011;14177;51.520;6.764;2022-12-29T18:51:51;11.63;;;3.40;;
26502;SDS011;14177;51.520;6.764;2022-12-29T18:56:56;9.18;;;2.60;;
26502;SDS011;14177;51.520;6.764;2022-12-29T18:59:23;14.38;;;3.53;;
26502;SDS011;14177;51.520;6.764;2022-12-29T19:01:52;13.48;;;3.63;;
26502;SDS011;14177;51.520;6.764;2022-12-29T19:04:31;9.38;;;3.25;;
26502;SDS011;14177;51.520;6.764;2022-12-29T19:08:09;13.30;;;3.05;;
26502;SDS011;14177;51.520;6.764;2022-12-29T19:10:50;11.75;;;3.10;;
26502;SDS011;14177;51.520;6.764;2022-12-29T19:13:37;15.68;;;4.10;;
26502;SDS011;14177;51.520;6.764;2022-12-29T19:16:06;12.48;;;3.75;;
26502;SDS011;14177;51.520;6.764;2022-12-29T19:18:50;20.42;;;4.82;;
26502;SDS011;14177;51.520;6.764;2022-12-29T19:21:49;32.90;;;11.63;;
26502;SDS011;14177;51.520;6.764;2022-12-29T19:24:56;21.98;;;4.47;;